Time;durP1;ratioP1;P1;durP2;ratioP2;P2;SDS_P1;SDS_P2;PMS_P1;PMS_P2;Temp;Humidity;BMP_temperature;BMP_pressure;BME280_temperature;BME280_humidity;BME280_pressure;Samples;Min_cycle;Max_cycle;Signal;HPM_P1;HPM_P2
2021/09/24 00:00:29;;;;;;;5.32;3.83;;;13.60;99.90;;;;;;5053520;28;20427;-74
2021/09/24 00:02:55;;;;;;;5.15;3.97;;;13.50;99.90;;;;;;5052497;28;20029;-75
2021/09/24 00:05:22;;;;;;;4.05;3.75;;;13.50;99.90;;;;;;5052762;28;20552;-74
2021/09/24 00:07:48;;;;;;;7.80;4.00;;;13.40;99.90;;;;;;5053328;28;20125;-75
2021/09/24 00:10:16;;;;;;;4.07;3.65;;;13.50;99.90;;;;;;5053413;28;20060;-75
2021/09/24 00:12:41;;;;;;;4.60;4.03;;;13.50;99.90;;;;;;5053273;28;20025;-74
2021/09/24 00:15:11;;;;;;;3.60;3.30;;;13.50;99.90;;;;;;5053617;28;20028;-75
2021/09/24 00:17:36;;;;;;;6.20;4.28;;;13.60;99.90;;;;;;5053951;28;20051;-76
2021/09/24 00:20:04;;;;;;;7.70;3.97;;;13.70;99.90;;;;;;5053493;28;20536;-75
2021/09/24 00:22:30;;;;;;;5.40;3.42;;;13.70;99.90;;;;;;5053300;28;20025;-74
2021/09/24 00:24:55;;;;;;;4.13;3.42;;;13.80;99.90;;;;;;5053522;28;20032;-75
2021/09/24 00:27:21;;;;;;;4.55;3.72;;;13.80;99.90;;;;;;5053775;28;20071;-75
2021/09/24 00:29:47;;;;;;;4.10;3.58;;;13.80;99.90;;;;;;5053826;28;20036;-75
2021/09/24 00:32:12;;;;;;;5.15;4.00;;;13.90;99.90;;;;;;5053674;28;20048;-75
2021/09/24 00:34:38;;;;;;;4.18;3.78;;;13.90;99.90;;;;;;5053020;28;20033;-75
2021/09/24 00:37:04;;;;;;;4.78;3.90;;;13.90;99.90;;;;;;5052923;28;20032;-74
2021/09/24 00:39:30;;;;;;;3.80;3.45;;;13.80;99.90;;;;;;5053081;28;20025;-74
2021/09/24 00:41:56;;;;;;;5.53;3.90;;;13.70;99.90;;;;;;5052874;28;20507;-74
2021/09/24 00:44:39;;;;;;;5.07;4.50;;;13.60;99.90;;;;;;5051496;28;20060;-75
2021/09/24 00:47:05;;;;;;;7.90;4.35;;;13.60;99.90;;;;;;5051614;28;20029;-75
2021/09/24 00:49:30;;;;;;;5.20;4.60;;;13.70;99.90;;;;;;5052628;28;20021;-78
2021/09/24 00:51:57;;;;;;;6.15;4.43;;;13.50;99.90;;;;;;5052542;28;20096;-75
2021/09/24 00:54:22;;;;;;;7.45;4.95;;;13.40;99.90;;;;;;5052495;28;20036;-74
2021/09/24 00:56:48;;;;;;;7.20;4.68;;;13.30;99.90;;;;;;5052632;28;20029;-75
2021/09/24 00:59:14;;;;;;;6.38;4.72;;;13.20;99.90;;;;;;5052315;28;20489;-75
2021/09/24 01:01:39;;;;;;;7.22;5.45;;;13.00;99.90;;;;;;5052212;28;20028;-75
2021/09/24 01:04:06;;;;;;;4.72;4.22;;;12.80;99.90;;;;;;5051125;28;20087;-74
2021/09/24 01:06:31;;;;;;;7.90;4.55;;;12.70;1.00;;;;;;5051010;28;20021;-75
2021/09/24 01:08:57;;;;;;;8.25;4.93;;;12.60;1.00;;;;;;5052260;28;20074;-75
2021/09/24 01:11:23;;;;;;;5.22;4.72;;;12.60;1.00;;;;;;5052065;28;20029;-74
2021/09/24 01:13:48;;;;;;;6.60;4.50;;;12.50;1.00;;;;;;5052432;28;20028;-75
2021/09/24 01:16:14;;;;;;;6.75;5.18;;;12.50;1.00;;;;;;5051032;28;20021;-75
2021/09/24 01:18:40;;;;;;;6.53;5.10;;;12.60;1.00;;;;;;5052254;28;20021;-77
2021/09/24 01:21:10;;;;;;;5.05;4.55;;;12.60;1.00;;;;;;5052300;28;20031;-76
2021/09/24 01:23:35;;;;;;;7.33;5.90;;;12.50;1.00;;;;;;5052210;28;20024;-74
2021/09/24 01:26:01;;;;;;;7.80;4.80;;;12.40;1.00;;;;;;5051584;28;20113;-75
2021/09/24 01:28:27;;;;;;;7.18;4.30;;;12.40;1.00;;;;;;5052152;28;20079;-75
2021/09/24 01:30:52;;;;;;;5.32;4.57;;;12.40;1.00;;;;;;5052145;28;20025;-74
2021/09/24 01:33:18;;;;;;;10.13;4.57;;;12.30;1.00;;;;;;5052091;28;20570;-75
2021/09/24 01:35:43;;;;;;;6.38;4.43;;;12.30;1.00;;;;;;5060285;28;20033;-74
2021/09/24 01:38:09;;;;;;;5.32;4.70;;;12.30;1.00;;;;;;5074663;28;20049;-75
2021/09/24 01:40:35;;;;;;;7.22;4.60;;;12.30;1.00;;;;;;5074890;28;20072;-75
2021/09/24 01:43:00;;;;;;;6.13;4.95;;;12.30;1.00;;;;;;5076340;28;20029;-74
2021/09/24 01:45:26;;;;;;;6.25;5.03;;;12.20;1.00;;;;;;5062668;28;20033;-74
2021/09/24 01:47:51;;;;;;;4.75;4.22;;;12.30;1.00;;;;;;5057501;28;20503;-75
2021/09/24 01:50:17;;;;;;;8.52;4.65;;;12.20;1.00;;;;;;5056282;28;20052;-75
2021/09/24 01:52:43;;;;;;;5.38;4.82;;;12.20;1.00;;;;;;5054629;28;20068;-75
2021/09/24 01:55:09;;;;;;;8.18;5.13;;;12.20;1.00;;;;;;5053078;28;20508;-75
2021/09/24 01:57:36;;;;;;;7.28;4.78;;;12.10;1.00;;;;;;5051870;28;20021;-75
2021/09/24 02:00:06;;;;;;;7.68;4.30;;;12.10;1.00;;;;;;5051252;28;20029;-76
2021/09/24 02:02:32;;;;;;;5.43;4.55;;;12.10;1.00;;;;;;5051994;28;20033;-76
2021/09/24 02:04:58;;;;;;;4.70;4.18;;;12.00;1.00;;;;;;5051226;28;20104;-76
2021/09/24 02:07:23;;;;;;;5.10;4.60;;;12.00;1.00;;;;;;5052421;28;20380;-76
2021/09/24 02:09:49;;;;;;;5.68;4.90;;;12.00;1.00;;;;;;5052165;28;20053;-75
2021/09/24 02:12:14;;;;;;;6.85;4.93;;;11.90;1.00;;;;;;5052171;28;20040;-75
2021/09/24 02:14:40;;;;;;;5.78;5.32;;;11.90;1.00;;;;;;5052719;28;20423;-75
2021/09/24 02:17:05;;;;;;;6.55;4.70;;;11.80;1.00;;;;;;5052297;28;20080;-74
2021/09/24 02:19:32;;;;;;;7.00;5.20;;;11.80;1.00;;;;;;5051759;28;20033;-75
2021/09/24 02:21:58;;;;;;;4.95;4.50;;;11.80;1.00;;;;;;5051463;28;20025;-74
2021/09/24 02:24:25;;;;;;;5.78;4.80;;;11.80;1.00;;;;;;5051778;28;20075;-75
2021/09/24 02:26:51;;;;;;;5.97;5.13;;;11.80;1.00;;;;;;5051754;28;20028;-75
2021/09/24 02:29:16;;;;;;;6.47;4.93;;;11.80;1.00;;;;;;5051659;28;20025;-75
2021/09/24 02:31:42;;;;;;;6.45;4.85;;;11.80;1.00;;;;;;5051856;28;20057;-75
2021/09/24 02:34:09;;;;;;;6.03;4.68;;;11.80;1.00;;;;;;5051699;28;20025;-75
2021/09/24 02:36:34;;;;;;;4.88;4.38;;;11.80;1.00;;;;;;5050366;28;20029;-74
2021/09/24 02:39:00;;;;;;;5.38;4.88;;;11.80;1.00;;;;;;5054904;28;20503;-77
2021/09/24 02:41:26;;;;;;;5.07;4.55;;;11.90;1.00;;;;;;5053829;28;20060;-75
2021/09/24 02:43:52;;;;;;;5.63;4.68;;;11.90;1.00;;;;;;5055036;28;20025;-75
2021/09/24 02:46:17;;;;;;;4.97;4.57;;;12.00;1.00;;;;;;5055168;28;20021;-75
2021/09/24 02:48:43;;;;;;;5.88;5.28;;;12.10;1.00;;;;;;5055022;28;20022;-75
2021/09/24 02:51:08;;;;;;;5.30;4.90;;;12.10;1.00;;;;;;5055059;28;20013;-75
2021/09/24 02:53:34;;;;;;;7.07;5.22;;;12.20;1.00;;;;;;5054665;28;20071;-75
2021/09/24 02:55:59;;;;;;;7.90;5.55;;;12.20;1.00;;;;;;5053512;28;20053;-76
2021/09/24 02:58:25;;;;;;;5.65;5.03;;;12.20;1.00;;;;;;5054621;28;20488;-75
2021/09/24 03:00:50;;;;;;;6.72;5.13;;;12.10;1.00;;;;;;5053454;28;20436;-75
2021/09/24 03:03:16;;;;;;;5.22;4.82;;;12.10;1.00;;;;;;5076773;22;20118;-75
2021/09/24 03:05:41;;;;;;;7.10;4.80;;;12.10;1.00;;;;;;5053157;28;20017;-72
2021/09/24 03:08:07;;;;;;;6.00;5.40;;;12.10;1.00;;;;;;5054892;28;20032;-75
2021/09/24 03:10:33;;;;;;;5.78;5.22;;;12.10;1.00;;;;;;5054422;28;20092;-71
2021/09/24 03:12:59;;;;;;;5.80;4.90;;;12.10;1.00;;;;;;5053039;28;20029;-74
2021/09/24 03:15:24;;;;;;;7.05;5.13;;;12.00;1.00;;;;;;5054407;28;20025;-74
2021/09/24 03:17:50;;;;;;;5.15;4.75;;;11.90;1.00;;;;;;5054260;28;20396;-73
2021/09/24 03:20:15;;;;;;;5.13;4.60;;;11.90;1.00;;;;;;5054395;28;20029;-73
2021/09/24 03:22:41;;;;;;;5.55;4.88;;;11.80;1.00;;;;;;5055237;28;20029;-73
2021/09/24 03:25:08;;;;;;;6.60;5.90;;;11.80;1.00;;;;;;5053580;28;20025;-76
2021/09/24 03:27:34;;;;;;;6.38;5.28;;;11.90;1.00;;;;;;5053208;28;20116;-73
2021/09/24 03:30:01;;;;;;;5.75;5.25;;;11.90;1.00;;;;;;5071123;28;20031;-73
2021/09/24 03:32:26;;;;;;;7.25;5.13;;;12.00;1.00;;;;;;5074165;28;20032;-73
2021/09/24 03:34:52;;;;;;;5.40;4.85;;;12.00;1.00;;;;;;5074180;28;20029;-73
2021/09/24 03:37:18;;;;;;;8.93;5.72;;;12.10;1.00;;;;;;5073443;28;20029;-74
2021/09/24 03:39:43;;;;;;;5.63;5.13;;;12.20;1.00;;;;;;5057798;28;20025;-72
2021/09/24 03:42:09;;;;;;;8.20;5.88;;;12.20;1.00;;;;;;5058278;28;20029;-73
2021/09/24 03:44:35;;;;;;;5.95;5.45;;;12.20;1.00;;;;;;5053847;28;20507;-72
2021/09/24 03:47:01;;;;;;;6.95;5.22;;;12.20;1.00;;;;;;5055756;28;20048;-73
2021/09/24 03:49:27;;;;;;;11.35;5.22;;;12.30;1.00;;;;;;5054430;28;20025;-74
2021/09/24 03:51:53;;;;;;;6.05;5.47;;;12.40;1.00;;;;;;5054064;28;20041;-74
2021/09/24 03:54:19;;;;;;;9.98;5.40;;;12.50;1.00;;;;;;5054804;28;20089;-73
2021/09/24 03:56:45;;;;;;;7.30;6.30;;;12.50;1.00;;;;;;5065008;28;20021;-72
2021/09/24 03:59:12;;;;;;;5.72;5.22;;;12.50;1.00;;;;;;5063358;28;20021;-72
2021/09/24 04:01:38;;;;;;;5.22;4.80;;;12.60;1.00;;;;;;5054626;28;20033;-74
2021/09/24 04:04:04;;;;;;;5.45;4.65;;;12.60;1.00;;;;;;5053643;28;20400;-74
2021/09/24 04:06:30;;;;;;;5.93;5.38;;;12.60;1.00;;;;;;5060315;28;20070;-73
2021/09/24 04:08:56;;;;;;;8.60;5.28;;;12.60;1.00;;;;;;5063612;28;20021;-74
2021/09/24 04:11:22;;;;;;;5.45;4.95;;;12.70;1.00;;;;;;5064857;28;20032;-73
2021/09/24 04:13:48;;;;;;;5.10;4.53;;;12.70;1.00;;;;;;5064485;28;20114;-74
2021/09/24 04:16:13;;;;;;;6.07;5.47;;;12.70;1.00;;;;;;5055609;28;20080;-73
2021/09/24 04:18:39;;;;;;;6.55;4.93;;;12.80;1.00;;;;;;5053284;28;20028;-73
2021/09/24 04:21:05;;;;;;;5.88;4.53;;;12.80;1.00;;;;;;5054376;28;20487;-74
2021/09/24 04:23:30;;;;;;;11.98;5.38;;;12.80;1.00;;;;;;5052209;28;20063;-73
2021/09/24 04:25:56;;;;;;;5.30;4.80;;;12.90;1.00;;;;;;5052353;28;20491;-73
2021/09/24 04:28:22;;;;;;;7.20;5.47;;;12.90;1.00;;;;;;5053020;28;20017;-73
2021/09/24 04:30:47;;;;;;;10.15;5.75;;;12.90;1.00;;;;;;5053435;28;20443;-74
2021/09/24 04:33:13;;;;;;;5.45;4.88;;;12.70;1.00;;;;;;5055517;28;20112;-73
2021/09/24 04:35:38;;;;;;;13.70;6.97;;;12.60;1.00;;;;;;5056095;28;20021;-73
2021/09/24 04:38:04;;;;;;;7.95;5.07;;;12.50;1.00;;;;;;5055108;28;20530;-73
2021/09/24 04:40:30;;;;;;;7.13;5.65;;;12.40;1.00;;;;;;5054854;28;20029;-73
2021/09/24 04:42:56;;;;;;;5.57;5.03;;;12.30;1.00;;;;;;5053119;28;20029;-73
2021/09/24 04:45:21;;;;;;;8.40;5.18;;;12.30;1.00;;;;;;5051784;28;20056;-72
2021/09/24 04:47:48;;;;;;;5.70;5.10;;;12.30;1.00;;;;;;5053370;28;20024;-72
2021/09/24 04:50:14;;;;;;;6.45;5.68;;;12.30;1.00;;;;;;5052505;28;20130;-73
2021/09/24 04:52:39;;;;;;;6.63;5.00;;;12.20;1.00;;;;;;5052934;28;20028;-73
2021/09/24 04:55:07;;;;;;;10.32;6.57;;;12.30;1.00;;;;;;5052775;28;20036;-73
2021/09/24 04:57:32;;;;;;;5.90;5.38;;;12.40;1.00;;;;;;5052649;28;20025;-73
2021/09/24 04:59:58;;;;;;;7.13;5.22;;;12.50;1.00;;;;;;5051736;28;20116;-73
2021/09/24 05:02:24;;;;;;;6.88;5.07;;;12.50;1.00;;;;;;5052496;28;20028;-73
2021/09/24 05:04:50;;;;;;;7.57;4.80;;;12.50;1.00;;;;;;5052366;28;20103;-74
2021/09/24 05:07:15;;;;;;;8.20;5.93;;;12.50;1.00;;;;;;5052465;28;20027;-73
2021/09/24 05:09:41;;;;;;;6.07;5.47;;;12.60;1.00;;;;;;5051242;28;20444;-75
2021/09/24 05:12:07;;;;;;;12.20;4.95;;;12.60;1.00;;;;;;5052454;28;20096;-74
2021/09/24 05:14:32;;;;;;;10.05;5.75;;;12.60;1.00;;;;;;5052389;28;20028;-73
2021/09/24 05:16:58;;;;;;;8.18;6.05;;;12.70;1.00;;;;;;5051323;28;20392;-73
2021/09/24 05:19:23;;;;;;;5.38;4.78;;;12.60;1.00;;;;;;5052203;28;20040;-74
2021/09/24 05:21:49;;;;;;;8.18;5.45;;;12.70;1.00;;;;;;5050832;28;20025;-74
2021/09/24 05:24:15;;;;;;;8.07;6.28;;;12.70;1.00;;;;;;5052545;28;20322;-74
2021/09/24 05:26:40;;;;;;;6.32;5.72;;;12.70;1.00;;;;;;5052538;28;20120;-71
2021/09/24 05:29:06;;;;;;;12.85;6.00;;;12.80;1.00;;;;;;5052277;28;20048;-73
2021/09/24 05:31:32;;;;;;;8.70;6.40;;;12.80;1.00;;;;;;5050521;28;20029;-74
2021/09/24 05:33:58;;;;;;;8.05;5.75;;;12.90;1.00;;;;;;5058195;28;20051;-73
2021/09/24 05:36:24;;;;;;;6.60;5.90;;;13.00;1.00;;;;;;5056623;28;20032;-73
2021/09/24 05:38:50;;;;;;;7.13;5.15;;;13.00;1.00;;;;;;5058326;28;20103;-73
2021/09/24 05:41:15;;;;;;;9.23;6.10;;;13.00;1.00;;;;;;5056691;28;20078;-74
2021/09/24 05:43:41;;;;;;;10.73;5.85;;;13.00;1.00;;;;;;5055066;28;20082;-75
2021/09/24 05:46:07;;;;;;;6.63;5.63;;;12.90;1.00;;;;;;5054271;28;20392;-74
2021/09/24 05:48:33;;;;;;;11.50;6.05;;;12.90;1.00;;;;;;5052614;28;20418;-73
2021/09/24 05:50:58;;;;;;;11.70;5.97;;;12.90;1.00;;;;;;5051847;28;20025;-73
2021/09/24 05:53:24;;;;;;;12.38;7.15;;;12.90;1.00;;;;;;5053327;28;20025;-72
2021/09/24 05:55:50;;;;;;;9.95;6.13;;;13.00;1.00;;;;;;5056623;28;20100;-72
2021/09/24 05:58:16;;;;;;;12.43;6.25;;;13.00;1.00;;;;;;5056660;28;20025;-73
2021/09/24 06:00:42;;;;;;;7.57;5.70;;;13.10;1.00;;;;;;5052905;28;20060;-75
2021/09/24 06:03:07;;;;;;;6.25;5.65;;;13.30;1.00;;;;;;5052297;28;20029;-74
2021/09/24 06:05:33;;;;;;;9.45;5.47;;;13.30;99.90;;;;;;5051936;28;20113;-74
2021/09/24 06:07:59;;;;;;;12.55;6.55;;;13.40;99.90;;;;;;5052681;28;20029;-74
2021/09/24 06:10:25;;;;;;;6.35;5.45;;;13.40;99.90;;;;;;5052751;28;20170;-73
2021/09/24 06:12:51;;;;;;;7.13;6.07;;;13.50;99.90;;;;;;5055829;28;20021;-73
2021/09/24 06:15:20;;;;;;;15.25;5.90;;;13.60;99.90;;;;;;5058484;28;20017;-74
2021/09/24 06:17:46;;;;;;;11.18;6.40;;;13.70;1.00;;;;;;5058351;28;20044;-73
2021/09/24 06:20:13;;;;;;;9.80;7.03;;;13.80;1.00;;;;;;5055276;28;20083;-73
2021/09/24 06:22:39;;;;;;;10.07;6.50;;;13.70;54.10;;;;;;5057272;28;20021;-73
2021/09/24 06:25:05;;;;;;;9.05;6.15;;;13.70;37.60;;;;;;5056319;28;20021;-73
2021/09/24 06:27:31;;;;;;;10.68;6.18;;;13.70;73.20;;;;;;5055974;28;20566;-73
2021/09/24 06:29:58;;;;;;;5.82;5.18;;;13.70;60.90;;;;;;5056916;28;20061;-74
2021/09/24 06:32:23;;;;;;;8.32;5.93;;;13.90;99.90;;;;;;5056193;28;20024;-74
2021/09/24 06:34:50;;;;;;;6.85;5.40;;;13.90;99.90;;;;;;5058226;28;20079;-74
2021/09/24 06:37:17;;;;;;;7.60;6.18;;;14.00;99.90;;;;;;5055741;28;20052;-74
2021/09/24 06:39:43;;;;;;;11.13;6.22;;;14.10;99.90;;;;;;5055586;28;20029;-74
2021/09/24 06:42:09;;;;;;;8.65;6.15;;;14.20;99.90;;;;;;5055564;28;20025;-74
2021/09/24 06:44:34;;;;;;;8.13;5.35;;;14.30;99.90;;;;;;5055733;28;20136;-74
2021/09/24 06:47:00;;;;;;;6.97;5.50;;;14.40;99.90;;;;;;5055312;28;20029;-74
2021/09/24 06:49:26;;;;;;;9.70;5.63;;;14.50;99.90;;;;;;5056091;28;20086;-74
2021/09/24 06:51:53;;;;;;;11.05;6.20;;;14.60;99.90;;;;;;5055452;28;20028;-74
2021/09/24 06:54:19;;;;;;;8.65;5.10;;;14.60;99.90;;;;;;5055344;28;20021;-74
2021/09/24 06:56:46;;;;;;;7.30;5.35;;;14.70;99.90;;;;;;5055723;28;20031;-74
2021/09/24 06:59:12;;;;;;;6.55;4.50;;;14.90;99.90;;;;;;5056243;28;20096;-73
2021/09/24 07:01:37;;;;;;;12.07;5.20;;;15.00;99.90;;;;;;5056052;28;20099;-74
2021/09/24 07:04:03;;;;;;;7.53;5.55;;;15.10;99.90;;;;;;5056202;28;20036;-74
2021/09/24 07:06:29;;;;;;;8.52;5.43;;;15.20;99.90;;;;;;5058724;28;20104;-73
2021/09/24 07:08:54;;;;;;;5.07;4.60;;;15.30;99.90;;;;;;5058102;28;20053;-74
2021/09/24 07:11:20;;;;;;;13.23;5.80;;;15.30;99.90;;;;;;5055930;28;20052;-73
2021/09/24 07:13:45;;;;;;;6.28;4.68;;;15.40;99.90;;;;;;5054303;28;20036;-73
2021/09/24 07:16:11;;;;;;;9.68;4.60;;;15.50;99.90;;;;;;5054445;28;20025;-74
2021/09/24 07:18:37;;;;;;;6.05;5.30;;;15.60;99.90;;;;;;5055187;28;20370;-74
2021/09/24 07:21:03;;;;;;;6.40;4.57;;;15.70;99.90;;;;;;5056971;28;20025;-74
2021/09/24 07:23:28;;;;;;;9.57;4.38;;;15.80;99.90;;;;;;5055557;28;20032;-73
2021/09/24 07:25:54;;;;;;;6.93;4.82;;;15.90;99.90;;;;;;5059293;28;20127;-73
2021/09/24 07:28:20;;;;;;;8.07;4.53;;;15.90;99.90;;;;;;5058432;28;20044;-74
2021/09/24 07:30:46;;;;;;;8.32;5.57;;;16.10;99.90;;;;;;5057069;28;20025;-74
2021/09/24 07:33:12;;;;;;;9.65;4.22;;;16.20;99.90;;;;;;5057510;28;20126;-74
2021/09/24 07:35:38;;;;;;;7.43;4.05;;;16.30;99.90;;;;;;5055960;28;20460;-75
2021/09/24 07:38:04;;;;;;;4.75;4.30;;;16.40;99.90;;;;;;5057873;28;20029;-75
2021/09/24 07:40:31;;;;;;;5.03;4.22;;;16.60;99.90;;;;;;5072300;28;20029;-75
2021/09/24 07:42:57;;;;;;;5.88;4.90;;;16.70;99.90;;;;;;5071221;28;20024;-72
2021/09/24 07:45:23;;;;;;;6.13;4.72;;;16.80;99.90;;;;;;5068534;28;20044;-76
2021/09/24 07:47:49;;;;;;;5.30;4.82;;;16.90;99.90;;;;;;5068625;28;20075;-74
2021/09/24 07:50:15;;;;;;;8.38;4.75;;;17.00;99.90;;;;;;5057174;28;20029;-74
2021/09/24 07:52:41;;;;;;;8.70;4.82;;;17.00;99.90;;;;;;5056317;28;20108;-74
2021/09/24 07:55:08;;;;;;;11.13;5.68;;;17.10;99.90;;;;;;5060761;28;20020;-74
2021/09/24 07:57:34;;;;;;;11.77;4.80;;;17.30;99.90;;;;;;5056677;28;20025;-74
2021/09/24 08:00:02;;;;;;;5.82;4.50;;;17.40;99.90;;;;;;5055647;28;20488;-74
2021/09/24 08:02:28;;;;;;;5.65;4.80;;;17.40;99.90;;;;;;5070136;28;20404;-74
2021/09/24 08:04:53;;;;;;;5.75;4.35;;;17.50;99.90;;;;;;5075191;28;20028;-74
2021/09/24 08:07:19;;;;;;;6.00;5.32;;;17.60;99.90;;;;;;5071336;28;20047;-74
2021/09/24 08:09:45;;;;;;;6.22;4.60;;;17.70;99.90;;;;;;5062054;28;20028;-75
2021/09/24 08:12:10;;;;;;;4.90;4.25;;;17.70;99.90;;;;;;5057852;28;20020;-74
2021/09/24 08:14:36;;;;;;;6.20;4.38;;;17.90;99.90;;;;;;5058866;28;20103;-73
2021/09/24 08:17:02;;;;;;;5.57;4.68;;;18.00;99.90;;;;;;5057646;28;20051;-76
2021/09/24 08:19:28;;;;;;;7.07;4.53;;;18.00;99.90;;;;;;5062222;28;20025;-73
2021/09/24 08:21:54;;;;;;;3.88;3.58;;;18.50;99.90;;;;;;5063190;28;20032;-74
2021/09/24 08:24:19;;;;;;;5.55;4.22;;;18.40;99.90;;;;;;5063213;28;20028;-74
2021/09/24 08:26:45;;;;;;;5.95;4.28;;;18.50;99.90;;;;;;5058384;28;20111;-75
2021/09/24 08:29:10;;;;;;;5.30;4.20;;;18.50;99.90;;;;;;5054512;28;20021;-74
2021/09/24 08:31:36;;;;;;;5.72;4.68;;;18.60;99.90;;;;;;5054471;28;20093;-75
2021/09/24 08:34:02;;;;;;;5.15;4.05;;;18.70;99.90;;;;;;5054593;28;20378;-74
2021/09/24 08:36:28;;;;;;;6.22;4.18;;;18.70;99.90;;;;;;5054476;28;20045;-74
2021/09/24 08:38:54;;;;;;;4.47;4.07;;;18.70;99.90;;;;;;5053551;28;20424;-73
2021/09/24 08:41:25;;;;;;;4.40;4.00;;;18.80;99.90;;;;;;5053644;28;20028;-73
2021/09/24 08:43:51;;;;;;;4.80;3.58;;;18.90;99.90;;;;;;5053485;28;20029;-74
2021/09/24 08:46:17;;;;;;;4.13;3.50;;;19.10;99.90;;;;;;5053753;28;20104;-74
2021/09/24 08:48:46;;;;;;;4.03;3.25;;;19.20;99.90;;;;;;5051781;28;20370;-75
2021/09/24 08:51:12;;;;;;;4.63;3.65;;;19.30;99.90;;;;;;5052503;28;20021;-75
2021/09/24 08:53:38;;;;;;;5.18;3.38;;;19.10;99.90;;;;;;5051985;28;20029;-74
2021/09/24 08:56:05;;;;;;;5.82;3.83;;;19.10;99.90;;;;;;5053314;28;20108;-75
2021/09/24 08:58:31;;;;;;;4.63;3.67;;;19.00;99.90;;;;;;5053116;28;20017;-73
2021/09/24 09:00:57;;;;;;;5.25;3.15;;;18.90;99.90;;;;;;5054203;28;20442;-74
2021/09/24 09:03:40;;;;;;;7.63;3.72;;;18.70;99.90;;;;;;5077147;22;20147;-77
2021/09/24 09:06:07;;;;;;;4.07;3.33;;;18.50;99.90;;;;;;5053432;28;20055;-77
2021/09/24 09:08:32;;;;;;;3.50;3.20;;;18.40;99.90;;;;;;5053708;28;20499;-76
2021/09/24 09:11:07;;;;;;;6.28;3.55;;;18.30;99.90;;;;;;5054838;28;20033;-74
2021/09/24 09:14:01;;;;;;;6.03;3.38;;;18.20;99.90;;;;;;5063853;28;20546;-75
2021/09/24 09:16:38;;;;;;;3.47;3.17;;;18.40;99.90;;;;;;5071556;28;20096;-75
2021/09/24 09:19:13;;;;;;;4.55;3.50;;;18.70;99.90;;;;;;5072316;28;20024;-75
2021/09/24 09:21:42;;;;;;;4.25;3.45;;;19.00;99.90;;;;;;5072764;28;20023;-75
2021/09/24 09:24:42;;;;;;;4.20;3.03;;;19.10;99.90;;;;;;5073710;28;20013;-76
2021/09/24 09:27:18;;;;;;;6.50;3.40;;;19.50;99.90;;;;;;5073113;28;20033;-75
2021/09/24 09:30:11;;;;;;;7.28;2.72;;;20.00;99.90;;;;;;5064522;28;20040;-76
2021/09/24 09:32:37;;;;;;;3.28;2.70;;;20.10;99.90;;;;;;5053699;28;20088;-76
2021/09/24 09:35:03;;;;;;;3.65;2.90;;;19.80;99.90;;;;;;5056101;28;20082;-76
2021/09/24 09:37:35;;;;;;;3.22;2.88;;;19.90;99.90;;;;;;5056240;28;20029;-76
2021/09/24 09:40:10;;;;;;;2.88;2.53;;;19.80;99.90;;;;;;5057365;28;20587;-74
2021/09/24 09:42:39;;;;;;;3.05;2.75;;;19.40;99.90;;;;;;5055865;28;20116;-75
2021/09/24 09:45:06;;;;;;;3.83;2.88;;;19.20;99.90;;;;;;5053660;28;20477;-76
2021/09/24 09:47:35;;;;;;;3.03;2.40;;;19.20;99.90;;;;;;5055469;28;20025;-76
2021/09/24 09:50:09;;;;;;;2.70;2.50;;;19.30;99.90;;;;;;5056889;28;20532;-76
2021/09/24 09:52:58;;;;;;;5.20;2.30;;;19.50;99.90;;;;;;5056869;28;20036;-76
2021/09/24 09:55:26;;;;;;;3.10;2.08;;;19.60;99.90;;;;;;5056762;28;20317;-75
2021/09/24 09:57:54;;;;;;;2.28;2.08;;;20.00;99.90;;;;;;5055762;28;20409;-76
2021/09/24 10:00:20;;;;;;;2.58;2.38;;;20.30;99.90;;;;;;5056868;28;20427;-75
2021/09/24 10:02:47;;;;;;;3.05;2.53;;;20.70;99.90;;;;;;5054991;28;20060;-75
2021/09/24 10:05:34;;;;;;;2.78;2.42;;;20.90;99.90;;;;;;5060861;28;20070;-76
2021/09/24 10:08:24;;;;;;;3.40;2.30;;;21.10;99.90;;;;;;5060615;28;20021;-77
2021/09/24 10:11:00;;;;;;;3.85;1.67;;;21.30;99.90;;;;;;5056864;28;20013;-77
2021/09/24 10:13:32;;;;;;;2.15;1.77;;;21.20;99.90;;;;;;5054782;28;20488;-75
2021/09/24 10:15:58;;;;;;;3.75;1.70;;;21.20;99.90;;;;;;5055144;28;20558;-76
2021/09/24 10:18:24;;;;;;;2.47;1.67;;;21.20;99.90;;;;;;5056438;28;20033;-76
2021/09/24 10:20:51;;;;;;;4.50;2.67;;;21.30;99.90;;;;;;5056617;28;20028;-76
2021/09/24 10:23:17;;;;;;;2.67;2.20;;;21.30;99.90;;;;;;5057129;28;20025;-75
2021/09/24 10:25:47;;;;;;;7.13;2.92;;;21.60;99.90;;;;;;5056214;28;20452;-76
2021/09/24 10:28:14;;;;;;;3.55;2.90;;;21.80;99.90;;;;;;5055940;28;20159;-76
2021/09/24 10:30:40;;;;;;;3.53;2.45;;;21.60;99.90;;;;;;5055488;28;20033;-76
2021/09/24 10:33:11;;;;;;;3.72;2.40;;;21.50;99.90;;;;;;5055582;28;20045;-76
2021/09/24 10:35:47;;;;;;;2.95;2.42;;;21.20;99.90;;;;;;5054248;28;20077;-77
2021/09/24 10:38:14;;;;;;;4.38;2.42;;;21.20;99.90;;;;;;5055742;28;20032;-74
2021/09/24 10:41:05;;;;;;;4.20;2.45;;;21.30;99.90;;;;;;5055917;28;20029;-75
2021/09/24 10:43:52;;;;;;;6.05;3.17;;;21.10;99.90;;;;;;5055237;28;20400;-75
2021/09/24 10:46:24;;;;;;;3.45;3.10;;;21.20;99.90;;;;;;5055903;28;20044;-77
2021/09/24 10:49:12;;;;;;;4.18;3.13;;;21.50;99.90;;;;;;5055306;28;20067;-75
2021/09/24 10:51:44;;;;;;;4.07;2.70;;;21.70;99.90;;;;;;5055623;28;20432;-76
2021/09/24 10:54:21;;;;;;;4.20;3.38;;;22.10;99.90;;;;;;5055493;28;20029;-76
2021/09/24 10:57:06;;;;;;;5.25;3.30;;;22.30;99.90;;;;;;5053976;28;20056;-76
2021/09/24 10:59:35;;;;;;;4.00;3.60;;;22.10;99.90;;;;;;5054426;28;20098;-76
2021/09/24 11:02:36;;;;;;;3.17;2.83;;;21.80;99.90;;;;;;5055433;28;20035;-75
2021/09/24 11:05:03;;;;;;;3.65;2.83;;;22.10;99.90;;;;;;5055088;28;20396;-76
2021/09/24 11:07:33;;;;;;;4.28;2.25;;;22.00;99.90;;;;;;5055089;28;20021;-77
2021/09/24 11:09:59;;;;;;;4.93;2.92;;;22.10;99.90;;;;;;5057184;28;20082;-77
2021/09/24 11:12:25;;;;;;;3.22;2.10;;;21.90;99.90;;;;;;5055701;28;20029;-76
2021/09/24 11:15:09;;;;;;;2.17;1.75;;;22.00;99.90;;;;;;5056037;28;20621;-76
2021/09/24 11:17:48;;;;;;;3.22;2.00;;;21.80;99.90;;;;;;5054963;28;20500;-78
2021/09/24 11:20:31;;;;;;;4.47;2.13;;;21.90;99.90;;;;;;5055100;28;20031;-76
2021/09/24 11:22:57;;;;;;;2.35;2.15;;;22.10;99.90;;;;;;5053052;28;20063;-76
2021/09/24 11:25:22;;;;;;;2.35;1.90;;;21.90;99.90;;;;;;5057173;28;20056;-76
2021/09/24 11:27:48;;;;;;;4.50;2.10;;;22.00;99.90;;;;;;5055748;28;20032;-76
2021/09/24 11:30:19;;;;;;;2.92;2.00;;;22.00;99.90;;;;;;5056118;28;20063;-75
2021/09/24 11:32:48;;;;;;;2.33;2.13;;;21.90;99.90;;;;;;5055229;28;20419;-76
2021/09/24 11:35:29;;;;;;;3.05;2.42;;;21.70;99.90;;;;;;5059957;28;20036;-76
2021/09/24 11:38:12;;;;;;;4.25;2.30;;;21.90;99.90;;;;;;5055400;28;20021;-76
2021/09/24 11:40:38;;;;;;;2.58;2.10;;;22.10;99.90;;;;;;5054482;28;20099;-76
2021/09/24 11:43:04;;;;;;;4.68;2.10;;;21.90;99.90;;;;;;5054898;28;20484;-76
2021/09/24 11:45:31;;;;;;;2.85;1.90;;;21.90;99.90;;;;;;5055641;28;20021;-77
2021/09/24 11:48:04;;;;;;;2.58;1.77;;;22.20;99.90;;;;;;5054635;28;20428;-75
2021/09/24 11:50:31;;;;;;;5.05;2.03;;;22.00;99.90;;;;;;5068600;28;20031;-76
2021/09/24 11:52:59;;;;;;;5.43;2.78;;;22.10;99.90;;;;;;5076187;28;20025;-75
2021/09/24 11:55:36;;;;;;;3.53;1.90;;;22.30;99.90;;;;;;5077550;28;20013;-76
2021/09/24 11:58:09;;;;;;;5.00;2.13;;;22.50;99.90;;;;;;5077049;28;20037;-76
2021/09/24 12:00:34;;;;;;;1.90;1.80;;;22.40;99.90;;;;;;5060374;28;20055;-76
2021/09/24 12:03:09;;;;;;;2.25;1.85;;;22.30;99.90;;;;;;5057901;28;20029;-76
2021/09/24 12:05:35;;;;;;;2.80;2.22;;;22.30;99.70;;;;;;5055634;28;20035;-75
2021/09/24 12:08:00;;;;;;;2.10;1.90;;;22.10;99.90;;;;;;5054907;28;20041;-75
2021/09/24 12:10:28;;;;;;;4.43;1.80;;;22.20;99.90;;;;;;5053816;28;20032;-77
2021/09/24 12:13:10;;;;;;;1.85;1.65;;;22.10;99.70;;;;;;5052502;28;20073;-77
2021/09/24 12:15:55;;;;;;;2.13;1.92;;;21.90;99.90;;;;;;5052566;28;20029;-76
2021/09/24 12:18:23;;;;;;;2.08;1.90;;;22.10;99.60;;;;;;5054406;28;20092;-77
2021/09/24 12:21:01;;;;;;;4.00;2.42;;;22.00;99.30;;;;;;5053723;28;20080;-76
2021/09/24 12:23:27;;;;;;;2.63;1.83;;;22.30;99.30;;;;;;5054767;28;20025;-77
2021/09/24 12:25:58;;;;;;;2.72;2.40;;;22.10;99.20;;;;;;5053737;28;20047;-76
2021/09/24 12:28:23;;;;;;;2.70;2.40;;;22.20;99.90;;;;;;5055738;28;20017;-76
2021/09/24 12:30:49;;;;;;;3.17;2.20;;;22.30;99.70;;;;;;5055790;28;20439;-76
2021/09/24 12:33:16;;;;;;;2.53;2.10;;;22.30;99.60;;;;;;5053834;28;20032;-76
2021/09/24 12:36:06;;;;;;;3.50;2.13;;;22.30;99.80;;;;;;5053739;28;20485;-76
2021/09/24 12:38:34;;;;;;;2.67;2.45;;;22.30;99.90;;;;;;5053632;28;20392;-76
2021/09/24 12:41:13;;;;;;;2.45;2.25;;;22.40;99.70;;;;;;5055091;28;20031;-76
2021/09/24 12:43:46;;;;;;;2.33;2.00;;;22.50;98.30;;;;;;5054135;28;20096;-76
2021/09/24 12:46:14;;;;;;;2.42;2.22;;;22.40;98.70;;;;;;5052743;28;20036;-76
2021/09/24 12:48:43;;;;;;;2.50;2.30;;;22.60;99.10;;;;;;5053885;28;20017;-77
2021/09/24 12:51:10;;;;;;;2.72;2.53;;;22.60;99.00;;;;;;5053842;28;20024;-76
2021/09/24 12:53:38;;;;;;;3.05;2.72;;;22.50;98.80;;;;;;5053712;28;20036;-76